sensor_id;sensor_type;location;lat;lon;timestamp;P1;durP1;ratioP1;P2;durP2;ratioP2
2860;SDS011;1438;50.922;6.704;2022-12-18T00:01:34;33.23;;;13.30;;
2860;SDS011;1438;50.922;6.704;2022-12-18T00:04:05;21.50;;;12.95;;
2860;SDS011;1438;50.922;6.704;2022-12-18T00:06:33;30.77;;;12.73;;
2860;SDS011;1438;50.922;6.704;2022-12-18T00:09:00;24.63;;;12.57;;
2860;SDS011;1438;50.922;6.704;2022-12-18T00:11:27;23.45;;;12.00;;
2860;SDS011;1438;50.922;6.704;2022-12-18T00:13:55;23.38;;;13.57;;
2860;SDS011;1438;50.922;6.704;2022-12-18T00:16:23;22.23;;;11.13;;
2860;SDS011;1438;50.922;6.704;2022-12-18T00:18:50;23.17;;;12.90;;
2860;SDS011;1438;50.922;6.704;2022-12-18T00:21:18;24.17;;;12.07;;
2860;SDS011;1438;50.922;6.704;2022-12-18T00:23:45;23.98;;;11.73;;
2860;SDS011;1438;50.922;6.704;2022-12-18T00:26:13;27.00;;;12.15;;
2860;SDS011;1438;50.922;6.704;2022-12-18T00:28:40;21.48;;;11.50;;
2860;SDS011;1438;50.922;6.704;2022-12-18T00:31:07;22.30;;;11.80;;
2860;SDS011;1438;50.922;6.704;2022-12-18T00:33:35;20.67;;;12.50;;
2860;SDS011;1438;50.922;6.704;2022-12-18T00:36:02;25.15;;;11.07;;
2860;SDS011;1438;50.922;6.704;2022-12-18T00:38:29;22.65;;;11.88;;
2860;SDS011;1438;50.922;6.704;2022-12-18T00:40:54;22.67;;;11.03;;
2860;SDS011;1438;50.922;6.704;2022-12-18T00:43:20;28.83;;;12.53;;
2860;SDS011;1438;50.922;6.704;2022-12-18T00:45:46;23.87;;;11.70;;
2860;SDS011;1438;50.922;6.704;2022-12-18T00:48:11;20.77;;;10.57;;
2860;SDS011;1438;50.922;6.704;2022-12-18T00:50:37;29.33;;;11.90;;
2860;SDS011;1438;50.922;6.704;2022-12-18T00:53:03;23.70;;;12.60;;
2860;SDS011;1438;50.922;6.704;2022-12-18T00:55:28;21.20;;;11.27;;
2860;SDS011;1438;50.922;6.704;2022-12-18T00:57:54;18.77;;;12.00;;
2860;SDS011;1438;50.922;6.704;2022-12-18T01:00:20;24.77;;;11.57;;
2860;SDS011;1438;50.922;6.704;2022-12-18T01:02:45;20.40;;;11.30;;
2860;SDS011;1438;50.922;6.704;2022-12-18T01:05:11;27.00;;;11.87;;
2860;SDS011;1438;50.922;6.704;2022-12-18T01:07:38;19.85;;;11.95;;
2860;SDS011;1438;50.922;6.704;2022-12-18T01:10:04;17.50;;;10.63;;
2860;SDS011;1438;50.922;6.704;2022-12-18T01:12:31;26.20;;;11.52;;
2860;SDS011;1438;50.922;6.704;2022-12-18T01:14:57;24.80;;;11.88;;
2860;SDS011;1438;50.922;6.704;2022-12-18T01:17:23;25.70;;;12.50;;
2860;SDS011;1438;50.922;6.704;2022-12-18T01:19:48;26.10;;;12.00;;
2860;SDS011;1438;50.922;6.704;2022-12-18T01:22:14;25.63;;;13.60;;
2860;SDS011;1438;50.922;6.704;2022-12-18T01:24:40;24.50;;;11.43;;
2860;SDS011;1438;50.922;6.704;2022-12-18T01:27:05;20.03;;;10.90;;
2860;SDS011;1438;50.922;6.704;2022-12-18T01:29:31;21.50;;;11.67;;
2860;SDS011;1438;50.922;6.704;2022-12-18T01:31:57;23.00;;;11.07;;
2860;SDS011;1438;50.922;6.704;2022-12-18T01:34:23;27.30;;;11.83;;
2860;SDS011;1438;50.922;6.704;2022-12-18T01:36:49;23.80;;;11.57;;
2860;SDS011;1438;50.922;6.704;2022-12-18T01:39:17;26.38;;;12.63;;
2860;SDS011;1438;50.922;6.704;2022-12-18T01:41:43;20.60;;;12.95;;
2860;SDS011;1438;50.922;6.704;2022-12-18T01:47:15;25.23;;;12.40;;
2860;SDS011;1438;50.922;6.704;2022-12-18T01:49:45;21.80;;;10.93;;
2860;SDS011;1438;50.922;6.704;2022-12-18T01:52:11;22.13;;;12.03;;
2860;SDS011;1438;50.922;6.704;2022-12-18T01:54:36;22.83;;;12.40;;
2860;SDS011;1438;50.922;6.704;2022-12-18T01:57:02;26.73;;;13.70;;
2860;SDS011;1438;50.922;6.704;2022-12-18T01:59:28;25.33;;;14.00;;
2860;SDS011;1438;50.922;6.704;2022-12-18T02:01:57;22.20;;;12.05;;
2860;SDS011;1438;50.922;6.704;2022-12-18T02:04:24;27.95;;;12.30;;
2860;SDS011;1438;50.922;6.704;2022-12-18T02:07:36;26.58;;;14.50;;
2860;SDS011;1438;50.922;6.704;2022-12-18T02:10:03;21.90;;;12.27;;
2860;SDS011;1438;50.922;6.704;2022-12-18T02:12:43;27.55;;;12.52;;
2860;SDS011;1438;50.922;6.704;2022-12-18T02:15:16;24.70;;;11.52;;
2860;SDS011;1438;50.922;6.704;2022-12-18T02:17:54;22.90;;;12.50;;
2860;SDS011;1438;50.922;6.704;2022-12-18T02:20:28;21.35;;;12.70;;
2860;SDS011;1438;50.922;6.704;2022-12-18T02:28:22;19.20;;;10.02;;
2860;SDS011;1438;50.922;6.704;2022-12-18T02:30:53;24.15;;;12.63;;
2860;SDS011;1438;50.922;6.704;2022-12-18T02:33:21;22.40;;;11.05;;
2860;SDS011;1438;50.922;6.704;2022-12-18T02:35:48;23.05;;;11.30;;
2860;SDS011;1438;50.922;6.704;2022-12-18T02:38:15;22.20;;;12.40;;
2860;SDS011;1438;50.922;6.704;2022-12-18T02:40:42;22.00;;;12.10;;
2860;SDS011;1438;50.922;6.704;2022-12-18T02:43:10;24.35;;;13.05;;
2860;SDS011;1438;50.922;6.704;2022-12-18T02:45:45;26.08;;;14.68;;
2860;SDS011;1438;50.922;6.704;2022-12-18T02:48:13;22.52;;;12.10;;
2860;SDS011;1438;50.922;6.704;2022-12-18T02:50:41;22.52;;;12.50;;
2860;SDS011;1438;50.922;6.704;2022-12-18T02:53:27;22.73;;;12.50;;
2860;SDS011;1438;50.922;6.704;2022-12-18T02:56:27;22.80;;;12.65;;
2860;SDS011;1438;50.922;6.704;2022-12-18T02:59:04;34.15;;;14.10;;
2860;SDS011;1438;50.922;6.704;2022-12-18T03:01:36;19.13;;;10.10;;
2860;SDS011;1438;50.922;6.704;2022-12-18T03:04:09;23.33;;;11.60;;
2860;SDS011;1438;50.922;6.704;2022-12-18T03:06:42;24.80;;;13.57;;
2860;SDS011;1438;50.922;6.704;2022-12-18T03:09:13;25.20;;;13.02;;
2860;SDS011;1438;50.922;6.704;2022-12-18T03:11:43;28.67;;;12.05;;
2860;SDS011;1438;50.922;6.704;2022-12-18T03:14:33;23.73;;;12.10;;
2860;SDS011;1438;50.922;6.704;2022-12-18T03:17:03;23.05;;;12.82;;
2860;SDS011;1438;50.922;6.704;2022-12-18T03:19:33;23.38;;;12.30;;
2860;SDS011;1438;50.922;6.704;2022-12-18T03:22:02;27.23;;;12.48;;
2860;SDS011;1438;50.922;6.704;2022-12-18T03:24:30;27.08;;;12.63;;
2860;SDS011;1438;50.922;6.704;2022-12-18T03:26:59;25.55;;;14.50;;
2860;SDS011;1438;50.922;6.704;2022-12-18T03:29:30;29.05;;;13.88;;
2860;SDS011;1438;50.922;6.704;2022-12-18T03:32:05;22.77;;;11.68;;
2860;SDS011;1438;50.922;6.704;2022-12-18T03:34:45;26.33;;;13.77;;
2860;SDS011;1438;50.922;6.704;2022-12-18T03:37:13;24.77;;;12.95;;
2860;SDS011;1438;50.922;6.704;2022-12-18T03:39:39;21.90;;;11.67;;
2860;SDS011;1438;50.922;6.704;2022-12-18T03:42:13;24.80;;;14.50;;
2860;SDS011;1438;50.922;6.704;2022-12-18T03:44:50;24.63;;;12.35;;
2860;SDS011;1438;50.922;6.704;2022-12-18T03:51:00;23.73;;;12.73;;
2860;SDS011;1438;50.922;6.704;2022-12-18T03:56:09;24.23;;;12.13;;
2860;SDS011;1438;50.922;6.704;2022-12-18T03:58:37;24.52;;;13.45;;
2860;SDS011;1438;50.922;6.704;2022-12-18T04:01:05;22.85;;;13.05;;
2860;SDS011;1438;50.922;6.704;2022-12-18T04:03:33;26.63;;;13.50;;
2860;SDS011;1438;50.922;6.704;2022-12-18T04:06:00;21.30;;;12.00;;
2860;SDS011;1438;50.922;6.704;2022-12-18T04:08:27;24.50;;;11.60;;
2860;SDS011;1438;50.922;6.704;2022-12-18T04:10:53;26.02;;;14.57;;
2860;SDS011;1438;50.922;6.704;2022-12-18T04:13:23;22.57;;;13.70;;
2860;SDS011;1438;50.922;6.704;2022-12-18T04:15:52;26.60;;;13.63;;
2860;SDS011;1438;50.922;6.704;2022-12-18T04:18:18;19.83;;;11.90;;
2860;SDS011;1438;50.922;6.704;2022-12-18T04:20:43;21.40;;;9.90;;
2860;SDS011;1438;50.922;6.704;2022-12-18T04:23:09;20.67;;;11.40;;
2860;SDS011;1438;50.922;6.704;2022-12-18T04:25:35;25.30;;;13.80;;
2860;SDS011;1438;50.922;6.704;2022-12-18T04:28:00;26.10;;;11.50;;
2860;SDS011;1438;50.922;6.704;2022-12-18T04:30:26;24.77;;;12.37;;
2860;SDS011;1438;50.922;6.704;2022-12-18T04:32:51;27.73;;;14.00;;
2860;SDS011;1438;50.922;6.704;2022-12-18T04:35:17;25.80;;;12.07;;
2860;SDS011;1438;50.922;6.704;2022-12-18T04:37:42;23.80;;;13.33;;
2860;SDS011;1438;50.922;6.704;2022-12-18T04:40:08;18.07;;;9.00;;
2860;SDS011;1438;50.922;6.704;2022-12-18T04:42:34;21.05;;;12.45;;
2860;SDS011;1438;50.922;6.704;2022-12-18T04:45:00;22.47;;;11.57;;
2860;SDS011;1438;50.922;6.704;2022-12-18T04:47:25;24.80;;;13.63;;
2860;SDS011;1438;50.922;6.704;2022-12-18T04:49:51;24.00;;;12.43;;
2860;SDS011;1438;50.922;6.704;2022-12-18T04:52:16;21.93;;;12.33;;
2860;SDS011;1438;50.922;6.704;2022-12-18T04:54:42;26.43;;;12.30;;
2860;SDS011;1438;50.922;6.704;2022-12-18T04:57:07;22.93;;;11.20;;
2860;SDS011;1438;50.922;6.704;2022-12-18T04:59:33;18.27;;;11.30;;
2860;SDS011;1438;50.922;6.704;2022-12-18T05:01:58;25.70;;;12.93;;
2860;SDS011;1438;50.922;6.704;2022-12-18T05:04:24;20.00;;;12.30;;
2860;SDS011;1438;50.922;6.704;2022-12-18T05:06:50;28.23;;;11.53;;
2860;SDS011;1438;50.922;6.704;2022-12-18T05:09:15;23.93;;;12.77;;
2860;SDS011;1438;50.922;6.704;2022-12-18T05:11:41;24.03;;;12.60;;
2860;SDS011;1438;50.922;6.704;2022-12-18T05:14:06;20.60;;;12.90;;
2860;SDS011;1438;50.922;6.704;2022-12-18T05:16:32;22.73;;;12.70;;
2860;SDS011;1438;50.922;6.704;2022-12-18T05:18:57;21.30;;;12.87;;
2860;SDS011;1438;50.922;6.704;2022-12-18T05:21:23;28.80;;;14.60;;
2860;SDS011;1438;50.922;6.704;2022-12-18T05:23:50;24.40;;;12.38;;
2860;SDS011;1438;50.922;6.704;2022-12-18T05:26:17;25.30;;;12.70;;
2860;SDS011;1438;50.922;6.704;2022-12-18T05:28:43;27.38;;;14.60;;
2860;SDS011;1438;50.922;6.704;2022-12-18T05:31:09;28.83;;;14.40;;
2860;SDS011;1438;50.922;6.704;2022-12-18T05:33:35;30.67;;;14.67;;
2860;SDS011;1438;50.922;6.704;2022-12-18T05:36:01;24.47;;;13.77;;
2860;SDS011;1438;50.922;6.704;2022-12-18T05:38:29;29.33;;;14.32;;
2860;SDS011;1438;50.922;6.704;2022-12-18T05:40:56;22.90;;;11.25;;
2860;SDS011;1438;50.922;6.704;2022-12-18T05:43:22;25.23;;;13.47;;
2860;SDS011;1438;50.922;6.704;2022-12-18T05:45:49;25.45;;;12.70;;
2860;SDS011;1438;50.922;6.704;2022-12-18T05:48:15;36.55;;;13.88;;
2860;SDS011;1438;50.922;6.704;2022-12-18T05:50:41;27.65;;;12.77;;
2860;SDS011;1438;50.922;6.704;2022-12-18T05:53:10;27.15;;;14.57;;
2860;SDS011;1438;50.922;6.704;2022-12-18T05:55:37;29.38;;;13.32;;
2860;SDS011;1438;50.922;6.704;2022-12-18T05:58:05;25.98;;;14.07;;
2860;SDS011;1438;50.922;6.704;2022-12-18T06:00:32;23.50;;;13.15;;
2860;SDS011;1438;50.922;6.704;2022-12-18T06:02:59;24.35;;;14.52;;
2860;SDS011;1438;50.922;6.704;2022-12-18T06:05:25;26.10;;;13.07;;
2860;SDS011;1438;50.922;6.704;2022-12-18T06:07:51;23.00;;;11.80;;
2860;SDS011;1438;50.922;6.704;2022-12-18T06:10:17;28.63;;;13.43;;
2860;SDS011;1438;50.922;6.704;2022-12-18T06:12:43;22.13;;;12.87;;
2860;SDS011;1438;50.922;6.704;2022-12-18T06:15:08;21.63;;;11.93;;
2860;SDS011;1438;50.922;6.704;2022-12-18T06:17:34;33.73;;;14.83;;
2860;SDS011;1438;50.922;6.704;2022-12-18T06:20:01;27.10;;;13.90;;
2860;SDS011;1438;50.922;6.704;2022-12-18T06:22:27;25.15;;;13.57;;
2860;SDS011;1438;50.922;6.704;2022-12-18T06:24:55;27.70;;;13.40;;
2860;SDS011;1438;50.922;6.704;2022-12-18T06:27:20;26.30;;;13.80;;
2860;SDS011;1438;50.922;6.704;2022-12-18T06:29:46;23.70;;;12.30;;
2860;SDS011;1438;50.922;6.704;2022-12-18T06:32:12;26.75;;;13.05;;
2860;SDS011;1438;50.922;6.704;2022-12-18T06:34:38;28.30;;;14.33;;
2860;SDS011;1438;50.922;6.704;2022-12-18T06:37:03;29.83;;;14.37;;
2860;SDS011;1438;50.922;6.704;2022-12-18T06:39:29;24.70;;;13.37;;
2860;SDS011;1438;50.922;6.704;2022-12-18T06:41:55;32.07;;;15.73;;
2860;SDS011;1438;50.922;6.704;2022-12-18T06:44:21;24.97;;;11.77;;
2860;SDS011;1438;50.922;6.704;2022-12-18T06:46:46;26.33;;;13.57;;
2860;SDS011;1438;50.922;6.704;2022-12-18T06:49:12;31.07;;;12.97;;
2860;SDS011;1438;50.922;6.704;2022-12-18T06:51:38;26.13;;;13.73;;
2860;SDS011;1438;50.922;6.704;2022-12-18T06:54:03;23.30;;;13.27;;
2860;SDS011;1438;50.922;6.704;2022-12-18T06:56:29;33.97;;;14.57;;
2860;SDS011;1438;50.922;6.704;2022-12-18T06:58:55;28.67;;;14.50;;
2860;SDS011;1438;50.922;6.704;2022-12-18T07:01:21;34.27;;;13.33;;
2860;SDS011;1438;50.922;6.704;2022-12-18T07:03:51;22.05;;;13.10;;
2860;SDS011;1438;50.922;6.704;2022-12-18T07:06:21;22.95;;;12.35;;
2860;SDS011;1438;50.922;6.704;2022-12-18T07:08:48;25.73;;;13.85;;
2860;SDS011;1438;50.922;6.704;2022-12-18T07:11:15;24.80;;;13.80;;
2860;SDS011;1438;50.922;6.704;2022-12-18T07:13:41;31.50;;;13.63;;
2860;SDS011;1438;50.922;6.704;2022-12-18T07:16:08;31.80;;;12.35;;
2860;SDS011;1438;50.922;6.704;2022-12-18T07:18:36;26.27;;;13.55;;
2860;SDS011;1438;50.922;6.704;2022-12-18T07:21:02;28.53;;;13.60;;
2860;SDS011;1438;50.922;6.704;2022-12-18T07:23:33;20.98;;;12.80;;
2860;SDS011;1438;50.922;6.704;2022-12-18T07:26:03;25.75;;;13.77;;
2860;SDS011;1438;50.922;6.704;2022-12-18T07:28:33;30.75;;;15.30;;
2860;SDS011;1438;50.922;6.704;2022-12-18T07:31:03;26.05;;;14.35;;
2860;SDS011;1438;50.922;6.704;2022-12-18T07:33:29;23.55;;;13.80;;
2860;SDS011;1438;50.922;6.704;2022-12-18T07:35:55;29.23;;;14.80;;
2860;SDS011;1438;50.922;6.704;2022-12-18T07:38:20;22.80;;;12.93;;
2860;SDS011;1438;50.922;6.704;2022-12-18T07:40:46;24.27;;;12.60;;
2860;SDS011;1438;50.922;6.704;2022-12-18T07:43:12;19.40;;;10.63;;
2860;SDS011;1438;50.922;6.704;2022-12-18T07:45:37;25.20;;;14.33;;
2860;SDS011;1438;50.922;6.704;2022-12-18T07:48:03;25.93;;;14.00;;
2860;SDS011;1438;50.922;6.704;2022-12-18T07:50:29;19.67;;;10.47;;
2860;SDS011;1438;50.922;6.704;2022-12-18T07:52:54;16.63;;;10.70;;
2860;SDS011;1438;50.922;6.704;2022-12-18T07:55:20;18.33;;;11.47;;
2860;SDS011;1438;50.922;6.704;2022-12-18T07:57:45;21.80;;;11.17;;
2860;SDS011;1438;50.922;6.704;2022-12-18T08:00:11;25.17;;;13.73;;
2860;SDS011;1438;50.922;6.704;2022-12-18T08:02:37;26.90;;;14.27;;
2860;SDS011;1438;50.922;6.704;2022-12-18T08:05:03;25.47;;;12.70;;
2860;SDS011;1438;50.922;6.704;2022-12-18T08:07:29;29.83;;;14.30;;
2860;SDS011;1438;50.922;6.704;2022-12-18T08:09:54;21.33;;;11.93;;
2860;SDS011;1438;50.922;6.704;2022-12-18T08:12:20;24.43;;;12.93;;
2860;SDS011;1438;50.922;6.704;2022-12-18T08:14:45;23.70;;;12.63;;
2860;SDS011;1438;50.922;6.704;2022-12-18T08:17:11;25.90;;;13.80;;
2860;SDS011;1438;50.922;6.704;2022-12-18T08:19:37;20.37;;;10.50;;
2860;SDS011;1438;50.922;6.704;2022-12-18T08:22:02;22.33;;;13.70;;
2860;SDS011;1438;50.922;6.704;2022-12-18T08:24:28;27.60;;;14.23;;
2860;SDS011;1438;50.922;6.704;2022-12-18T08:26:53;27.23;;;12.80;;
2860;SDS011;1438;50.922;6.704;2022-12-18T08:29:19;24.10;;;13.43;;
2860;SDS011;1438;50.922;6.704;2022-12-18T08:31:44;26.50;;;14.30;;
2860;SDS011;1438;50.922;6.704;2022-12-18T08:34:10;23.60;;;12.77;;
2860;SDS011;1438;50.922;6.704;2022-12-18T08:36:36;25.83;;;13.80;;
2860;SDS011;1438;50.922;6.704;2022-12-18T08:39:01;23.83;;;12.27;;
2860;SDS011;1438;50.922;6.704;2022-12-18T08:41:27;26.70;;;11.83;;
2860;SDS011;1438;50.922;6.704;2022-12-18T08:43:52;27.53;;;14.07;;
2860;SDS011;1438;50.922;6.704;2022-12-18T08:46:37;17.33;;;9.65;;
2860;SDS011;1438;50.922;6.704;2022-12-18T08:49:05;22.45;;;13.88;;
2860;SDS011;1438;50.922;6.704;2022-12-18T08:51:32;24.27;;;13.57;;
2860;SDS011;1438;50.922;6.704;2022-12-18T08:53:58;21.67;;;11.85;;
2860;SDS011;1438;50.922;6.704;2022-12-18T08:56:24;20.50;;;11.50;;
2860;SDS011;1438;50.922;6.704;2022-12-18T08:58:53;30.93;;;15.47;;
2860;SDS011;1438;50.922;6.704;2022-12-18T09:01:19;24.00;;;12.35;;
2860;SDS011;1438;50.922;6.704;2022-12-18T09:03:45;23.83;;;13.60;;
2860;SDS011;1438;50.922;6.704;2022-12-18T09:06:13;27.03;;;14.50;;
2860;SDS011;1438;50.922;6.704;2022-12-18T09:08:40;25.20;;;13.60;;
2860;SDS011;1438;50.922;6.704;2022-12-18T09:11:10;25.33;;;14.35;;
2860;SDS011;1438;50.922;6.704;2022-12-18T09:13:38;20.92;;;13.60;;
2860;SDS011;1438;50.922;6.704;2022-12-18T09:16:04;25.10;;;14.00;;
2860;SDS011;1438;50.922;6.704;2022-12-18T09:18:30;33.30;;;15.00;;
2860;SDS011;1438;50.922;6.704;2022-12-18T09:20:55;20.67;;;13.10;;
2860;SDS011;1438;50.922;6.704;2022-12-18T09:23:21;21.17;;;12.87;;
2860;SDS011;1438;50.922;6.704;2022-12-18T09:25:46;19.97;;;12.53;;
2860;SDS011;1438;50.922;6.704;2022-12-18T09:28:16;21.47;;;13.47;;
2860;SDS011;1438;50.922;6.704;2022-12-18T09:30:47;18.35;;;11.02;;
2860;SDS011;1438;50.922;6.704;2022-12-18T09:33:14;26.00;;;12.73;;
2860;SDS011;1438;50.922;6.704;2022-12-18T09:35:41;24.92;;;12.93;;
2860;SDS011;1438;50.922;6.704;2022-12-18T09:38:08;21.38;;;12.95;;
2860;SDS011;1438;50.922;6.704;2022-12-18T09:40:41;28.55;;;15.00;;
2860;SDS011;1438;50.922;6.704;2022-12-18T09:43:12;22.10;;;13.27;;
2860;SDS011;1438;50.922;6.704;2022-12-18T09:45:44;25.20;;;12.98;;
2860;SDS011;1438;50.922;6.704;2022-12-18T09:48:18;24.75;;;14.55;;
2860;SDS011;1438;50.922;6.704;2022-12-18T09:50:48;27.02;;;15.80;;
2860;SDS011;1438;50.922;6.704;2022-12-18T09:53:17;23.10;;;12.63;;
2860;SDS011;1438;50.922;6.704;2022-12-18T09:55:47;22.60;;;13.65;;
2860;SDS011;1438;50.922;6.704;2022-12-18T10:00:48;23.52;;;13.98;;
2860;SDS011;1438;50.922;6.704;2022-12-18T10:03:17;23.00;;;12.88;;
2860;SDS011;1438;50.922;6.704;2022-12-18T10:23:03;16.55;;;10.77;;
2860;SDS011;1438;50.922;6.704;2022-12-18T10:28:10;17.67;;;11.23;;
2860;SDS011;1438;50.922;6.704;2022-12-18T10:30:38;20.20;;;12.80;;
2860;SDS011;1438;50.922;6.704;2022-12-18T10:33:05;20.52;;;11.98;;
2860;SDS011;1438;50.922;6.704;2022-12-18T10:35:31;20.23;;;13.27;;
2860;SDS011;1438;50.922;6.704;2022-12-18T10:38:42;25.17;;;13.87;;
2860;SDS011;1438;50.922;6.704;2022-12-18T10:43:21;19.05;;;12.10;;
2860;SDS011;1438;50.922;6.704;2022-12-18T10:48:40;23.90;;;13.50;;
2860;SDS011;1438;50.922;6.704;2022-12-18T10:51:26;22.05;;;12.90;;
2860;SDS011;1438;50.922;6.704;2022-12-18T10:53:54;24.38;;;12.55;;
2860;SDS011;1438;50.922;6.704;2022-12-18T10:56:32;20.55;;;11.48;;
2860;SDS011;1438;50.922;6.704;2022-12-18T10:59:01;24.48;;;14.20;;
2860;SDS011;1438;50.922;6.704;2022-12-18T11:04:18;18.13;;;11.43;;
2860;SDS011;1438;50.922;6.704;2022-12-18T11:09:25;22.98;;;13.45;;
2860;SDS011;1438;50.922;6.704;2022-12-18T11:11:57;23.33;;;12.77;;
2860;SDS011;1438;50.922;6.704;2022-12-18T11:14:26;23.63;;;13.00;;
2860;SDS011;1438;50.922;6.704;2022-12-18T11:16:59;21.17;;;14.13;;
2860;SDS011;1438;50.922;6.704;2022-12-18T11:22:03;27.23;;;14.70;;
2860;SDS011;1438;50.922;6.704;2022-12-18T11:24:43;26.00;;;13.63;;
2860;SDS011;1438;50.922;6.704;2022-12-18T11:27:17;22.02;;;11.88;;
2860;SDS011;1438;50.922;6.704;2022-12-18T11:29:43;23.05;;;14.93;;
2860;SDS011;1438;50.922;6.704;2022-12-18T11:34:59;24.98;;;14.80;;
2860;SDS011;1438;50.922;6.704;2022-12-18T11:37:33;24.00;;;14.15;;
2860;SDS011;1438;50.922;6.704;2022-12-18T11:40:02;23.65;;;14.40;;
2860;SDS011;1438;50.922;6.704;2022-12-18T11:42:48;26.27;;;14.70;;
2860;SDS011;1438;50.922;6.704;2022-12-18T11:45:52;22.25;;;14.13;;
2860;SDS011;1438;50.922;6.704;2022-12-18T11:48:34;20.70;;;13.50;;
2860;SDS011;1438;50.922;6.704;2022-12-18T11:51:11;31.98;;;15.70;;
2860;SDS011;1438;50.922;6.704;2022-12-18T11:53:40;27.63;;;14.05;;
2860;SDS011;1438;50.922;6.704;2022-12-18T12:01:52;25.23;;;15.10;;
2860;SDS011;1438;50.922;6.704;2022-12-18T12:04:45;25.85;;;13.48;;
2860;SDS011;1438;50.922;6.704;2022-12-18T12:07:31;27.55;;;14.40;;
2860;SDS011;1438;50.922;6.704;2022-12-18T12:10:20;22.10;;;14.13;;
2860;SDS011;1438;50.922;6.704;2022-12-18T12:15:47;30.38;;;14.00;;
2860;SDS011;1438;50.922;6.704;2022-12-18T12:18:38;29.98;;;14.20;;
2860;SDS011;1438;50.922;6.704;2022-12-18T12:21:56;26.05;;;14.68;;
2860;SDS011;1438;50.922;6.704;2022-12-18T12:40:12;27.23;;;15.93;;
2860;SDS011;1438;50.922;6.704;2022-12-18T12:42:44;20.10;;;13.82;;
2860;SDS011;1438;50.922;6.704;2022-12-18T12:45:37;27.95;;;15.68;;
2860;SDS011;1438;50.922;6.704;2022-12-18T12:48:34;29.10;;;14.63;;
2860;SDS011;1438;50.922;6.704;2022-12-18T12:51:21;23.88;;;14.70;;
2860;SDS011;1438;50.922;6.704;2022-12-18T12:53:53;21.83;;;13.77;;
2860;SDS011;1438;50.922;6.704;2022-12-18T12:56:21;30.77;;;15.30;;
2860;SDS011;1438;50.922;6.704;2022-12-18T13:09:01;22.10;;;13.93;;
2860;SDS011;1438;50.922;6.704;2022-12-18T13:14:37;23.90;;;15.10;;
2860;SDS011;1438;50.922;6.704;2022-12-18T13:19:49;28.40;;;13.85;;
2860;SDS011;1438;50.922;6.704;2022-12-18T13:22:36;25.98;;;14.98;;
2860;SDS011;1438;50.922;6.704;2022-12-18T13:25:26;25.30;;;13.15;;
2860;SDS011;1438;50.922;6.704;2022-12-18T13:28:00;24.50;;;13.10;;
2860;SDS011;1438;50.922;6.704;2022-12-18T13:39:08;26.40;;;15.02;;
2860;SDS011;1438;50.922;6.704;2022-12-18T13:41:00;24.63;;;15.00;;
2860;SDS011;1438;50.922;6.704;2022-12-18T13:48:50;27.95;;;15.50;;
2860;SDS011;1438;50.922;6.704;2022-12-18T13:51:23;23.30;;;13.65;;
2860;SDS011;1438;50.922;6.704;2022-12-18T13:54:00;25.95;;;15.88;;
2860;SDS011;1438;50.922;6.704;2022-12-18T13:56:47;25.75;;;16.45;;
2860;SDS011;1438;50.922;6.704;2022-12-18T13:59:21;24.20;;;14.05;;
2860;SDS011;1438;50.922;6.704;2022-12-18T14:04:22;26.17;;;13.65;;
2860;SDS011;1438;50.922;6.704;2022-12-18T14:06:55;25.85;;;15.63;;
2860;SDS011;1438;50.922;6.704;2022-12-18T14:09:41;22.98;;;15.65;;
2860;SDS011;1438;50.922;6.704;2022-12-18T14:12:44;29.17;;;14.48;;
2860;SDS011;1438;50.922;6.704;2022-12-18T14:21:47;33.47;;;15.52;;
2860;SDS011;1438;50.922;6.704;2022-12-18T14:24:18;23.83;;;13.65;;
2860;SDS011;1438;50.922;6.704;2022-12-18T14:26:45;29.80;;;16.80;;
2860;SDS011;1438;50.922;6.704;2022-12-18T14:32:13;21.95;;;13.32;;
2860;SDS011;1438;50.922;6.704;2022-12-18T14:34:41;31.63;;;17.45;;
2860;SDS011;1438;50.922;6.704;2022-12-18T14:37:12;27.00;;;15.32;;
2860;SDS011;1438;50.922;6.704;2022-12-18T17:02:25;28.27;;;16.55;;
2860;SDS011;1438;50.922;6.704;2022-12-18T20:35:28;43.83;;;21.38;;
2860;SDS011;1438;50.922;6.704;2022-12-18T20:38:09;43.53;;;21.85;;
2860;SDS011;1438;50.922;6.704;2022-12-18T20:40:39;48.17;;;23.00;;
2860;SDS011;1438;50.922;6.704;2022-12-18T20:43:05;36.22;;;20.42;;
2860;SDS011;1438;50.922;6.704;2022-12-18T20:45:31;41.50;;;20.87;;
2860;SDS011;1438;50.922;6.704;2022-12-18T20:47:57;42.05;;;20.65;;
2860;SDS011;1438;50.922;6.704;2022-12-18T20:50:24;36.90;;;19.60;;
2860;SDS011;1438;50.922;6.704;2022-12-18T20:52:52;43.08;;;21.67;;
2860;SDS011;1438;50.922;6.704;2022-12-18T20:55:17;36.30;;;20.37;;
2860;SDS011;1438;50.922;6.704;2022-12-18T20:57:43;39.27;;;20.43;;
2860;SDS011;1438;50.922;6.704;2022-12-18T21:00:09;38.17;;;19.50;;
2860;SDS011;1438;50.922;6.704;2022-12-18T21:02:35;31.58;;;18.30;;
2860;SDS011;1438;50.922;6.704;2022-12-18T21:05:01;41.40;;;19.03;;
2860;SDS011;1438;50.922;6.704;2022-12-18T21:07:27;38.97;;;21.80;;
2860;SDS011;1438;50.922;6.704;2022-12-18T21:09:52;39.10;;;19.10;;
2860;SDS011;1438;50.922;6.704;2022-12-18T21:12:18;38.78;;;21.95;;
2860;SDS011;1438;50.922;6.704;2022-12-18T21:14:58;44.22;;;21.55;;
2860;SDS011;1438;50.922;6.704;2022-12-18T21:17:30;36.75;;;19.55;;
2860;SDS011;1438;50.922;6.704;2022-12-18T21:19:56;37.57;;;19.53;;
2860;SDS011;1438;50.922;6.704;2022-12-18T21:22:22;38.17;;;21.63;;
2860;SDS011;1438;50.922;6.704;2022-12-18T21:24:48;42.27;;;21.10;;
2860;SDS011;1438;50.922;6.704;2022-12-18T21:27:13;39.27;;;22.63;;
2860;SDS011;1438;50.922;6.704;2022-12-18T21:29:39;42.90;;;21.90;;
2860;SDS011;1438;50.922;6.704;2022-12-18T21:32:05;38.13;;;20.57;;
2860;SDS011;1438;50.922;6.704;2022-12-18T21:34:33;46.63;;;22.23;;
2860;SDS011;1438;50.922;6.704;2022-12-18T21:36:59;41.95;;;21.73;;
2860;SDS011;1438;50.922;6.704;2022-12-18T21:39:26;35.70;;;20.85;;
2860;SDS011;1438;50.922;6.704;2022-12-18T21:41:53;35.80;;;20.17;;
2860;SDS011;1438;50.922;6.704;2022-12-18T21:44:38;38.67;;;20.65;;
2860;SDS011;1438;50.922;6.704;2022-12-18T21:47:04;39.55;;;22.02;;
2860;SDS011;1438;50.922;6.704;2022-12-18T21:49:30;41.97;;;22.63;;
2860;SDS011;1438;50.922;6.704;2022-12-18T21:51:57;43.90;;;23.17;;
2860;SDS011;1438;50.922;6.704;2022-12-18T21:54:25;47.63;;;22.65;;
2860;SDS011;1438;50.922;6.704;2022-12-18T21:59:40;42.97;;;22.23;;
2860;SDS011;1438;50.922;6.704;2022-12-18T22:04:37;43.15;;;23.42;;
2860;SDS011;1438;50.922;6.704;2022-12-18T22:07:03;48.47;;;25.50;;
2860;SDS011;1438;50.922;6.704;2022-12-18T22:09:31;40.88;;;22.67;;
2860;SDS011;1438;50.922;6.704;2022-12-18T22:11:57;42.85;;;23.38;;
2860;SDS011;1438;50.922;6.704;2022-12-18T22:14:41;41.75;;;21.17;;
2860;SDS011;1438;50.922;6.704;2022-12-18T22:20:32;39.40;;;21.23;;
2860;SDS011;1438;50.922;6.704;2022-12-18T22:23:41;44.50;;;22.25;;
2860;SDS011;1438;50.922;6.704;2022-12-18T22:33:25;41.70;;;23.13;;
2860;SDS011;1438;50.922;6.704;2022-12-18T22:35:52;39.25;;;21.40;;
2860;SDS011;1438;50.922;6.704;2022-12-18T22:38:51;46.97;;;23.77;;
2860;SDS011;1438;50.922;6.704;2022-12-18T22:41:42;46.63;;;24.08;;
2860;SDS011;1438;50.922;6.704;2022-12-18T22:44:10;47.63;;;21.90;;
2860;SDS011;1438;50.922;6.704;2022-12-18T22:46:37;44.45;;;23.50;;
2860;SDS011;1438;50.922;6.704;2022-12-18T22:49:42;46.25;;;23.83;;
2860;SDS011;1438;50.922;6.704;2022-12-18T22:54:51;47.72;;;22.70;;
